Airfield :
LOGIN :

Register | Disclaimer

   EN    FR    IT 

 










Legend :    VFR   Marginal VFR   IFR   Intensive IFR   Very Intensive IFR
Visi :
Ceiling :
>= 8 km
>= 3000ft
5 to 8 km
1000 to 3000 ft
1500m to 5 km
500 to 1000 ft
800 to 1500m
200 to 500 ft
< 800m
< 200 ft
Symbols :   Thunderstorms  Fog  Heavy snow  Heavy precipitations  Wind > 20 kt
SIGMETs :     Misc.  Thunderstorms  Icing  Turbulence  Mountain Waves  Volcanic Ashes







- Airport Elevation : 1058 ft
- IATA code : SCN


EDDR - Saarbrücken

CURRENT METAR :
  • 301620Z 11011KT 060V150 CAVOK 19/M00 Q1005 NOSIG

EXPIRED METARs :
  • 301550Z 11010KT 090V150 CAVOK 19/M01 Q1005 NOSIG
  • 301520Z 13010G20KT 090V160 CAVOK 19/M01 Q1006 NOSIG
  • 301450Z 12012KT 090V160 CAVOK 18/00 Q1006 NOSIG
  • 301420Z 10012KT 070V150 CAVOK 18/01 Q1007 NOSIG
  • 301350Z 10013KT 060V140 CAVOK 18/01 Q1007 NOSIG

TAF TAF EDDR
Valid from the 30 at 12:00 until the 01 at 12:00 UTC


301100Z 3012/0112 10010KT CAVOK
BECMG 3023/0103 26007KT
TEMPO 0106/0112 RA BKN014
No reported NOTAMs for that airfield.



MET'MAP, your aeronautical weather chart ! - Copyright ORBIFLY December 2007 - Disclaimer

ORBIFLY MET'MAP TEAM :

Programming & Development : Alexandra Zaïnal
Concept & Development : Baudouin d'Aumeries
Co-Development & Prog : Marc-Olivier Méhu
Technical & hardware support : Manuel Goepfert

Contact : metmap@orbifly.com




SOURCES & CREDITS :

   NOAA